createdAt,value
2023-03-21T00:01:50.098Z,7.10
2023-03-21T00:06:56.834Z,4.87
2023-03-21T00:12:04.182Z,4.06
2023-03-21T00:17:10.954Z,6.08
2023-03-21T00:22:17.201Z,11.26
2023-03-21T00:27:45.281Z,11.15
2023-03-21T00:32:30.083Z,5.17
2023-03-21T00:37:36.553Z,9.23
2023-03-21T00:42:42.722Z,5.68
2023-03-21T00:47:50.596Z,8.42
2023-03-21T00:52:56.416Z,5.27
2023-03-21T00:58:03.039Z,8.01
2023-03-21T01:03:23.161Z,8.01
2023-03-21T01:08:26.660Z,6.39
2023-03-21T01:13:21.176Z,6.49
2023-03-21T01:18:28.851Z,5.98
2023-03-21T01:23:36.190Z,6.19
2023-03-21T01:28:42.964Z,5.68
2023-03-21T01:33:49.362Z,5.88
2023-03-21T01:38:56.050Z,6.19
2023-03-21T01:44:02.373Z,6.08
2023-03-21T01:49:10.120Z,5.88
2023-03-21T01:54:16.312Z,6.19
2023-03-21T01:59:22.933Z,5.58
2023-03-21T02:04:30.191Z,6.59
2023-03-21T02:09:36.569Z,8.11
2023-03-21T02:14:43.019Z,5.98
2023-03-21T02:19:53.351Z,5.17
2023-03-21T02:25:01.448Z,7.20
2023-03-21T02:30:02.981Z,9.73
2023-03-21T02:35:09.405Z,5.68
2023-03-21T02:40:17.352Z,8.01
2023-03-21T02:45:25.603Z,6.29
2023-03-21T02:50:32.291Z,9.53
2023-03-21T02:55:39.741Z,6.19
2023-03-21T03:00:46.444Z,8.21
2023-03-21T03:05:52.937Z,5.68
2023-03-21T03:10:59.588Z,9.84
2023-03-21T03:16:06.964Z,5.48
2023-03-21T03:21:14.599Z,6.29
2023-03-21T03:26:20.775Z,5.07
2023-03-21T03:31:27.487Z,8.11
2023-03-21T03:36:34.653Z,4.56
2023-03-21T03:42:04.142Z,6.08
2023-03-21T03:46:48.145Z,8.01
2023-03-21T03:51:55.621Z,9.73
2023-03-21T03:57:02.824Z,5.98
2023-03-21T04:02:09.197Z,5.98
2023-03-21T04:07:15.356Z,7.81
2023-03-21T04:12:21.762Z,4.87
2023-03-21T04:17:29.175Z,5.58
2023-03-21T04:22:36.159Z,8.52
2023-03-21T04:27:44.229Z,5.98
2023-03-21T04:32:50.750Z,5.98
2023-03-21T04:37:56.795Z,5.58
2023-03-21T04:43:04.288Z,8.42
2023-03-21T04:48:10.500Z,5.58
2023-03-21T04:53:17.295Z,5.98
2023-03-21T04:58:23.777Z,6.08
2023-03-21T05:03:31.772Z,5.98
2023-03-21T05:08:36.402Z,5.98
2023-03-21T05:13:43.048Z,5.68
2023-03-21T05:18:49.127Z,5.68
2023-03-21T05:23:55.779Z,7.40
2023-03-21T05:29:02.020Z,6.08
2023-03-21T05:34:08.761Z,6.59
2023-03-21T05:39:15.189Z,6.29
2023-03-21T05:44:21.958Z,4.97
2023-03-21T05:49:28.549Z,5.98
2023-03-21T05:54:35.057Z,7.00
2023-03-21T05:59:41.395Z,5.88
2023-03-21T06:04:47.974Z,7.81
2023-03-21T06:09:54.108Z,5.98
2023-03-21T06:15:00.834Z,8.31
2023-03-21T06:20:07.090Z,5.98
2023-03-21T06:25:15.805Z,9.53
2023-03-21T06:30:22.206Z,5.48
2023-03-21T06:35:28.821Z,6.39
2023-03-21T06:40:34.907Z,6.59
2023-03-21T06:45:42.508Z,5.27
2023-03-21T06:50:48.804Z,10.34
2023-03-21T06:55:55.496Z,6.49
2023-03-21T07:01:02.899Z,5.88
2023-03-21T07:06:09.574Z,5.17
2023-03-21T07:11:17.044Z,5.98
2023-03-21T07:16:26.747Z,5.88
2023-03-21T07:21:34.247Z,6.08
2023-03-21T07:26:40.775Z,5.88
2023-03-21T07:31:47.128Z,7.50
2023-03-21T07:36:53.712Z,5.98
2023-03-21T07:42:00.215Z,4.77
2023-03-21T07:47:09.173Z,5.88
2023-03-21T07:52:15.232Z,6.29
2023-03-21T07:57:23.192Z,6.08
2023-03-21T08:02:30.536Z,6.39
2023-03-21T08:07:37.285Z,6.69
2023-03-21T08:12:43.454Z,5.17
2023-03-21T08:17:50.942Z,6.39
2023-03-21T08:22:59.484Z,5.98
2023-03-21T08:28:06.007Z,5.98
2023-03-21T08:33:12.294Z,6.19
2023-03-21T08:38:19.026Z,6.69
2023-03-21T08:43:25.478Z,5.78
2023-03-21T08:48:32.139Z,4.87
2023-03-21T08:53:38.295Z,4.56
2023-03-21T08:58:45.944Z,6.39
2023-03-21T09:03:52.008Z,4.26
2023-03-21T09:08:59.636Z,5.58
2023-03-21T09:14:06.044Z,1.12
2023-03-21T09:19:13.855Z,2.74
2023-03-21T09:24:19.994Z,4.66
2023-03-21T09:29:26.284Z,5.07
2023-03-21T09:34:32.454Z,4.26
2023-03-21T09:39:38.924Z,3.75
2023-03-21T09:44:45.335Z,5.48
2023-03-21T09:49:54.620Z,4.26
2023-03-21T09:54:58.042Z,4.56
2023-03-21T10:00:07.662Z,2.64
2023-03-21T10:05:15.164Z,2.84
2023-03-21T10:10:21.904Z,7.00
2023-03-21T10:15:28.346Z,4.26
2023-03-21T10:20:34.987Z,5.98
2023-03-21T10:25:41.353Z,4.36
2023-03-21T10:30:47.971Z,5.78
2023-03-21T10:35:54.445Z,3.35
2023-03-21T10:41:01.083Z,4.26
2023-03-21T10:46:07.448Z,5.78
2023-03-21T10:51:14.672Z,4.77
2023-03-21T10:56:21.189Z,5.98
2023-03-21T11:01:28.851Z,5.57
2023-03-21T11:06:34.872Z,5.67
2023-03-21T11:11:41.913Z,5.17
2023-03-21T11:16:48.505Z,2.79
2023-03-21T11:21:55.096Z,1.55
2023-03-21T11:27:01.616Z,1.39
2023-03-21T11:32:09.153Z,0.85
2023-03-21T11:37:15.785Z,0.00
2023-03-21T11:42:23.616Z,4.93
2023-03-21T11:47:30.007Z,1.69
2023-03-21T11:52:37.609Z,1.60
2023-03-21T11:57:44.341Z,0.66
2023-03-21T12:02:51.092Z,1.52
2023-03-21T12:07:57.555Z,0.46
2023-03-21T12:13:04.069Z,2.65
2023-03-21T12:18:10.472Z,1.17
2023-03-21T12:23:17.406Z,0.00
2023-03-21T12:28:32.640Z,1.77
2023-03-21T12:33:31.115Z,1.38
2023-03-21T12:38:37.660Z,0.00
2023-03-21T12:43:44.344Z,0.12
2023-03-21T12:48:50.820Z,2.71
2023-03-21T12:53:57.452Z,0.00
2023-03-21T12:59:04.003Z,1.28
2023-03-21T13:04:11.213Z,3.51
2023-03-21T13:09:21.245Z,3.88
2023-03-21T13:14:24.178Z,0.33
2023-03-21T13:19:30.655Z,2.20
2023-03-21T13:24:37.678Z,2.19
2023-03-21T13:29:44.008Z,2.53
2023-03-21T13:34:50.788Z,1.32
2023-03-21T13:39:57.373Z,4.68
2023-03-21T13:45:04.351Z,3.99
2023-03-21T13:50:11.023Z,4.84
2023-03-21T13:55:17.188Z,1.87
2023-03-21T14:00:23.802Z,3.77
2023-03-21T14:05:37.026Z,4.08
2023-03-21T14:10:33.019Z,2.42
2023-03-21T14:15:43.724Z,2.29
2023-03-21T14:20:45.936Z,3.10
2023-03-21T14:25:52.846Z,1.63
2023-03-21T14:30:59.632Z,0.30
2023-03-21T14:36:06.654Z,1.05
2023-03-21T14:41:13.098Z,4.02
2023-03-21T14:46:19.972Z,3.59
2023-03-21T14:51:26.429Z,1.03
2023-03-21T14:56:32.907Z,0.44
2023-03-21T15:01:39.355Z,3.14
2023-03-21T15:06:46.362Z,1.16
2023-03-21T15:11:53.628Z,1.12
2023-03-21T15:17:00.511Z,0.10
2023-03-21T15:22:06.612Z,2.23
2023-03-21T15:27:14.332Z,5.07
2023-03-21T15:32:20.784Z,1.83
2023-03-21T15:37:27.414Z,1.42
2023-03-21T15:42:33.992Z,2.42
2023-03-21T15:47:40.933Z,0.00
2023-03-21T15:52:48.393Z,0.85
2023-03-21T15:57:55.482Z,0.66
2023-03-21T16:03:02.939Z,1.96
2023-03-21T16:08:10.754Z,0.69
2023-03-21T16:13:17.065Z,1.38
2023-03-21T16:18:24.182Z,3.95
2023-03-21T16:23:30.708Z,0.56
2023-03-21T16:28:37.367Z,0.38
2023-03-21T16:33:43.994Z,4.03
2023-03-21T16:38:50.630Z,0.55
2023-03-21T16:43:57.204Z,4.87
2023-03-21T16:49:04.148Z,0.85
2023-03-21T16:54:10.536Z,3.91
2023-03-21T16:59:17.472Z,3.48
2023-03-21T17:04:23.936Z,2.79
2023-03-21T17:09:31.172Z,3.85
2023-03-21T17:14:38.480Z,0.62
2023-03-21T17:19:47.990Z,2.24
2023-03-21T17:24:55.830Z,2.79
2023-03-21T17:30:05.171Z,2.48
2023-03-21T17:35:12.739Z,1.24
2023-03-21T17:40:19.431Z,3.30
2023-03-21T17:45:25.879Z,4.23
2023-03-21T17:50:33.676Z,0.30
2023-03-21T17:55:41.048Z,2.99
2023-03-21T18:00:48.304Z,3.20
2023-03-21T18:05:55.242Z,3.04
2023-03-21T18:11:04.663Z,3.30
2023-03-21T18:16:12.159Z,2.84
2023-03-21T18:21:20.196Z,2.03
2023-03-21T18:26:26.230Z,4.85
2023-03-21T18:31:34.384Z,2.03
2023-03-21T18:36:40.873Z,6.08
2023-03-21T18:41:50.052Z,1.83
2023-03-21T18:46:59.113Z,1.72
2023-03-21T18:57:37.117Z,5.48
2023-03-21T19:02:19.093Z,0.10
2023-03-21T19:07:26.488Z,3.95
2023-03-21T19:12:32.956Z,2.84
2023-03-21T19:18:30.267Z,5.98
2023-03-21T19:22:44.950Z,3.45
2023-03-21T19:27:52.294Z,3.04
2023-03-21T19:32:57.374Z,3.45
2023-03-21T19:38:03.895Z,0.00
2023-03-21T19:43:31.121Z,4.87
2023-03-21T19:48:16.065Z,3.95
2023-03-21T19:53:22.003Z,4.87
2023-03-21T19:58:30.513Z,5.68
2023-03-21T20:03:42.943Z,3.24
2023-03-21T20:08:57.972Z,0.10
2023-03-21T20:13:45.193Z,1.83
2023-03-21T20:18:51.635Z,6.29
2023-03-21T20:23:57.903Z,5.88
2023-03-21T20:29:48.435Z,4.77
2023-03-21T20:34:11.336Z,5.78
2023-03-21T20:39:17.369Z,4.46
2023-03-21T20:44:57.203Z,5.58
2023-03-21T20:49:29.549Z,3.85
2023-03-21T20:54:37.212Z,4.66
2023-03-21T20:59:44.981Z,0.00
2023-03-21T21:05:17.737Z,5.27
2023-03-21T21:09:58.183Z,5.78
2023-03-21T21:15:08.284Z,5.78
2023-03-21T21:20:04.711Z,3.45
2023-03-21T21:25:11.791Z,2.74
2023-03-21T21:30:18.746Z,5.68
2023-03-21T21:35:24.478Z,2.03
2023-03-21T21:40:30.580Z,4.36
2023-03-21T21:45:36.933Z,5.88
2023-03-21T21:50:46.162Z,4.56
2023-03-21T21:55:52.765Z,5.37
2023-03-21T22:00:59.036Z,3.35
2023-03-21T22:06:06.294Z,5.68
2023-03-21T22:11:12.673Z,6.29
2023-03-21T22:16:19.230Z,6.69
2023-03-21T22:21:25.294Z,5.98
2023-03-21T22:26:32.471Z,5.98
2023-03-21T22:31:38.391Z,5.88
2023-03-21T22:36:45.028Z,4.46
2023-03-21T22:41:51.101Z,5.58
2023-03-21T22:46:57.512Z,5.07
2023-03-21T22:52:06.898Z,6.79
2023-03-21T22:57:14.143Z,6.79
2023-03-21T23:02:20.203Z,5.98
2023-03-21T23:07:26.640Z,5.78
2023-03-21T23:12:33.763Z,5.68
2023-03-21T23:17:40.481Z,5.37
2023-03-21T23:22:46.809Z,5.78
2023-03-21T23:27:54.224Z,6.39
2023-03-21T23:33:00.431Z,5.98
2023-03-21T23:38:06.729Z,5.98
2023-03-21T23:43:12.932Z,6.69
2023-03-21T23:48:19.557Z,6.08
2023-03-21T23:53:25.668Z,5.98
2023-03-21T23:58:32.541Z,7.30
